sensor_id;sensor_type;location;lat;lon;timestamp;pressure;altitude;pressure_sealevel;temperature;humidity
62946;BME280;52164;52.212;-1.010;2023-02-14T00:00:04;102207.30;;;3.22;78.03
62946;BME280;52164;52.212;-1.010;2023-02-14T00:02:29;102205.88;;;3.22;78.14
62946;BME280;52164;52.212;-1.010;2023-02-14T00:04:54;102202.98;;;3.21;78.04
62946;BME280;52164;52.212;-1.010;2023-02-14T00:07:20;102202.91;;;3.19;77.89
62946;BME280;52164;52.212;-1.010;2023-02-14T00:09:45;102207.06;;;3.18;77.92
62946;BME280;52164;52.212;-1.010;2023-02-14T00:12:10;102202.94;;;3.17;77.57
62946;BME280;52164;52.212;-1.010;2023-02-14T00:14:35;102204.17;;;3.14;77.95
62946;BME280;52164;52.212;-1.010;2023-02-14T00:17:21;102208.95;;;3.11;77.60
62946;BME280;52164;52.212;-1.010;2023-02-14T00:19:46;102209.65;;;3.08;77.75
62946;BME280;52164;52.212;-1.010;2023-02-14T00:22:11;102211.40;;;3.05;77.78
62946;BME280;52164;52.212;-1.010;2023-02-14T00:24:36;102212.25;;;3.01;77.78
62946;BME280;52164;52.212;-1.010;2023-02-14T00:27:02;102216.34;;;2.95;78.07
62946;BME280;52164;52.212;-1.010;2023-02-14T00:29:28;102215.05;;;2.91;78.16
62946;BME280;52164;52.212;-1.010;2023-02-14T00:31:58;102212.08;;;2.89;78.76
62946;BME280;52164;52.212;-1.010;2023-02-14T00:34:23;102214.83;;;2.88;78.95
62946;BME280;52164;52.212;-1.010;2023-02-14T00:36:49;102221.34;;;2.87;79.04
62946;BME280;52164;52.212;-1.010;2023-02-14T00:39:14;102217.32;;;2.88;79.13
62946;BME280;52164;52.212;-1.010;2023-02-14T00:41:41;102218.89;;;2.91;79.27
62946;BME280;52164;52.212;-1.010;2023-02-14T00:44:07;102217.08;;;2.92;79.12
62946;BME280;52164;52.212;-1.010;2023-02-14T00:46:33;102214.89;;;2.94;79.14
62946;BME280;52164;52.212;-1.010;2023-02-14T00:48:58;102210.09;;;2.96;79.26
62946;BME280;52164;52.212;-1.010;2023-02-14T00:51:24;102214.08;;;2.98;79.13
62946;BME280;52164;52.212;-1.010;2023-02-14T00:53:49;102207.27;;;3.00;78.94
62946;BME280;52164;52.212;-1.010;2023-02-14T00:56:15;102205.61;;;3.02;78.56
62946;BME280;52164;52.212;-1.010;2023-02-14T00:58:41;102211.02;;;3.04;78.69
62946;BME280;52164;52.212;-1.010;2023-02-14T01:01:07;102206.70;;;3.06;78.77
62946;BME280;52164;52.212;-1.010;2023-02-14T01:03:34;102207.40;;;3.08;78.77
62946;BME280;52164;52.212;-1.010;2023-02-14T01:05:59;102206.12;;;3.11;78.62
62946;BME280;52164;52.212;-1.010;2023-02-14T01:08:25;102203.73;;;3.12;78.73
62946;BME280;52164;52.212;-1.010;2023-02-14T01:10:50;102201.30;;;3.13;78.99
62946;BME280;52164;52.212;-1.010;2023-02-14T01:13:17;102198.70;;;3.14;78.97
62946;BME280;52164;52.212;-1.010;2023-02-14T01:15:44;102197.36;;;3.15;78.99
62946;BME280;52164;52.212;-1.010;2023-02-14T01:18:09;102196.38;;;3.16;78.61
62946;BME280;52164;52.212;-1.010;2023-02-14T01:20:35;102198.16;;;3.16;78.61
62946;BME280;52164;52.212;-1.010;2023-02-14T01:23:00;102194.96;;;3.16;78.61
62946;BME280;52164;52.212;-1.010;2023-02-14T01:25:26;102198.52;;;3.14;78.48
62946;BME280;52164;52.212;-1.010;2023-02-14T01:27:51;102199.05;;;3.10;78.43
62946;BME280;52164;52.212;-1.010;2023-02-14T01:30:16;102197.19;;;3.09;78.85
62946;BME280;52164;52.212;-1.010;2023-02-14T01:32:43;102198.80;;;3.06;78.87
62946;BME280;52164;52.212;-1.010;2023-02-14T01:35:09;102201.08;;;3.03;78.98
62946;BME280;52164;52.212;-1.010;2023-02-14T01:37:34;102202.63;;;2.99;78.85
62946;BME280;52164;52.212;-1.010;2023-02-14T01:39:59;102196.00;;;2.94;79.15
62946;BME280;52164;52.212;-1.010;2023-02-14T01:42:26;102197.83;;;2.89;79.21
62946;BME280;52164;52.212;-1.010;2023-02-14T01:44:54;102197.85;;;2.84;79.26
62946;BME280;52164;52.212;-1.010;2023-02-14T01:47:19;102195.23;;;2.78;79.33
62946;BME280;52164;52.212;-1.010;2023-02-14T01:49:46;102195.61;;;2.73;79.56
62946;BME280;52164;52.212;-1.010;2023-02-14T01:52:16;102197.08;;;2.67;79.87
62946;BME280;52164;52.212;-1.010;2023-02-14T01:54:45;102188.83;;;2.61;79.82
62946;BME280;52164;52.212;-1.010;2023-02-14T01:57:13;102186.23;;;2.57;79.72
62946;BME280;52164;52.212;-1.010;2023-02-14T01:59:42;102188.77;;;2.51;79.65
62946;BME280;52164;52.212;-1.010;2023-02-14T02:02:10;102188.46;;;2.47;79.70
62946;BME280;52164;52.212;-1.010;2023-02-14T02:04:38;102183.65;;;2.43;79.81
62946;BME280;52164;52.212;-1.010;2023-02-14T02:07:05;102186.98;;;2.40;79.89
62946;BME280;52164;52.212;-1.010;2023-02-14T02:09:32;102186.40;;;2.38;80.01
62946;BME280;52164;52.212;-1.010;2023-02-14T02:11:58;102188.05;;;2.40;79.84
62946;BME280;52164;52.212;-1.010;2023-02-14T02:14:26;102190.86;;;2.40;80.12
62946;BME280;52164;52.212;-1.010;2023-02-14T02:17:11;102189.23;;;2.42;80.18
62946;BME280;52164;52.212;-1.010;2023-02-14T02:22:18;102192.63;;;2.40;79.37
62946;BME280;52164;52.212;-1.010;2023-02-14T02:36:03;102185.38;;;2.04;78.24
62946;BME280;52164;52.212;-1.010;2023-02-14T02:40:47;102193.63;;;1.95;78.57
62946;BME280;52164;52.212;-1.010;2023-02-14T02:43:37;102189.59;;;1.90;78.01
62946;BME280;52164;52.212;-1.010;2023-02-14T02:46:05;102187.38;;;1.85;78.04
62946;BME280;52164;52.212;-1.010;2023-02-14T02:49:05;102186.73;;;1.75;77.60
62946;BME280;52164;52.212;-1.010;2023-02-14T02:51:35;102185.33;;;1.64;77.57
62946;BME280;52164;52.212;-1.010;2023-02-14T02:54:26;102180.38;;;1.52;77.73
62946;BME280;52164;52.212;-1.010;2023-02-14T02:56:55;102176.11;;;1.43;77.81
62946;BME280;52164;52.212;-1.010;2023-02-14T02:59:27;102173.80;;;1.37;78.16
62946;BME280;52164;52.212;-1.010;2023-02-14T03:01:56;102168.80;;;1.33;78.30
62946;BME280;52164;52.212;-1.010;2023-02-14T03:04:23;102167.88;;;1.30;78.55
62946;BME280;52164;52.212;-1.010;2023-02-14T03:07:11;102170.06;;;1.26;78.34
62946;BME280;52164;52.212;-1.010;2023-02-14T03:09:57;102165.77;;;1.19;78.11
62946;BME280;52164;52.212;-1.010;2023-02-14T03:15:21;102176.41;;;1.10;78.58
62946;BME280;52164;52.212;-1.010;2023-02-14T03:17:54;102176.89;;;1.11;79.27
62946;BME280;52164;52.212;-1.010;2023-02-14T03:20:31;102185.55;;;1.14;78.85
62946;BME280;52164;52.212;-1.010;2023-02-14T03:23:12;102185.54;;;1.14;78.23
62946;BME280;52164;52.212;-1.010;2023-02-14T03:28:40;102185.43;;;1.21;78.98
62946;BME280;52164;52.212;-1.010;2023-02-14T03:30:57;102178.42;;;1.30;79.28
62946;BME280;52164;52.212;-1.010;2023-02-14T03:35:55;102178.79;;;1.46;79.84
62946;BME280;52164;52.212;-1.010;2023-02-14T03:38:30;102177.48;;;1.56;80.08
62946;BME280;52164;52.212;-1.010;2023-02-14T03:40:57;102171.45;;;1.67;80.10
62946;BME280;52164;52.212;-1.010;2023-02-14T03:45:52;102163.25;;;1.79;79.94
62946;BME280;52164;52.212;-1.010;2023-02-14T03:48:18;102169.27;;;1.86;79.95
62946;BME280;52164;52.212;-1.010;2023-02-14T03:50:45;102165.46;;;1.90;79.74
62946;BME280;52164;52.212;-1.010;2023-02-14T03:53:12;102166.32;;;1.92;79.54
62946;BME280;52164;52.212;-1.010;2023-02-14T03:55:40;102164.92;;;1.92;79.37
62946;BME280;52164;52.212;-1.010;2023-02-14T03:58:09;102159.70;;;1.93;79.37
62946;BME280;52164;52.212;-1.010;2023-02-14T04:00:40;102156.61;;;1.92;79.42
62946;BME280;52164;52.212;-1.010;2023-02-14T04:03:08;102158.10;;;1.93;79.92
62946;BME280;52164;52.212;-1.010;2023-02-14T04:05:36;102157.16;;;1.95;79.71
62946;BME280;52164;52.212;-1.010;2023-02-14T04:08:08;102152.29;;;1.96;79.68
62946;BME280;52164;52.212;-1.010;2023-02-14T04:10:33;102154.45;;;1.97;79.84
62946;BME280;52164;52.212;-1.010;2023-02-14T04:12:58;102151.56;;;1.95;79.69
62946;BME280;52164;52.212;-1.010;2023-02-14T04:15:24;102148.71;;;1.92;79.93
62946;BME280;52164;52.212;-1.010;2023-02-14T04:17:49;102145.17;;;1.92;80.13
62946;BME280;52164;52.212;-1.010;2023-02-14T04:20:34;102151.89;;;1.92;80.08
62946;BME280;52164;52.212;-1.010;2023-02-14T04:23:01;102155.45;;;1.93;80.12
62946;BME280;52164;52.212;-1.010;2023-02-14T04:25:26;102158.86;;;1.94;80.60
62946;BME280;52164;52.212;-1.010;2023-02-14T04:27:51;102149.41;;;1.92;80.41
62946;BME280;52164;52.212;-1.010;2023-02-14T04:30:17;102152.52;;;1.91;80.25
62946;BME280;52164;52.212;-1.010;2023-02-14T04:32:44;102154.91;;;1.90;80.28
62946;BME280;52164;52.212;-1.010;2023-02-14T04:35:14;102156.83;;;1.89;80.57
62946;BME280;52164;52.212;-1.010;2023-02-14T04:37:39;102155.05;;;1.89;80.49
62946;BME280;52164;52.212;-1.010;2023-02-14T04:40:05;102150.53;;;1.87;80.55
62946;BME280;52164;52.212;-1.010;2023-02-14T04:42:30;102153.52;;;1.87;80.74
62946;BME280;52164;52.212;-1.010;2023-02-14T04:44:56;102143.86;;;1.87;80.95
62946;BME280;52164;52.212;-1.010;2023-02-14T04:47:21;102143.58;;;1.89;80.80
62946;BME280;52164;52.212;-1.010;2023-02-14T04:49:46;102141.76;;;1.91;80.58
62946;BME280;52164;52.212;-1.010;2023-02-14T04:52:11;102148.94;;;1.90;80.45
62946;BME280;52164;52.212;-1.010;2023-02-14T04:54:37;102152.57;;;1.95;81.08
62946;BME280;52164;52.212;-1.010;2023-02-14T04:57:02;102145.24;;;1.99;80.73
62946;BME280;52164;52.212;-1.010;2023-02-14T04:59:27;102153.09;;;2.03;80.81
62946;BME280;52164;52.212;-1.010;2023-02-14T05:01:53;102153.41;;;2.09;80.51
62946;BME280;52164;52.212;-1.010;2023-02-14T05:04:18;102154.35;;;2.12;80.76
62946;BME280;52164;52.212;-1.010;2023-02-14T05:06:44;102152.77;;;2.15;80.83
62946;BME280;52164;52.212;-1.010;2023-02-14T05:09:09;102149.73;;;2.18;80.62
62946;BME280;52164;52.212;-1.010;2023-02-14T05:11:34;102147.34;;;2.19;80.61
62946;BME280;52164;52.212;-1.010;2023-02-14T05:13:59;102151.50;;;2.21;80.55
62946;BME280;52164;52.212;-1.010;2023-02-14T05:16:25;102149.42;;;2.21;80.55
62946;BME280;52164;52.212;-1.010;2023-02-14T05:18:50;102154.20;;;2.24;80.79
62946;BME280;52164;52.212;-1.010;2023-02-14T05:21:16;102155.61;;;2.27;80.90
62946;BME280;52164;52.212;-1.010;2023-02-14T05:23:41;102153.56;;;2.28;80.96
62946;BME280;52164;52.212;-1.010;2023-02-14T05:26:06;102146.27;;;2.31;81.04
62946;BME280;52164;52.212;-1.010;2023-02-14T05:28:32;102138.88;;;2.34;80.99
62946;BME280;52164;52.212;-1.010;2023-02-14T05:30:57;102137.02;;;2.38;81.25
62946;BME280;52164;52.212;-1.010;2023-02-14T05:33:23;102142.39;;;2.42;81.08
62946;BME280;52164;52.212;-1.010;2023-02-14T05:35:51;102143.02;;;2.44;81.17
62946;BME280;52164;52.212;-1.010;2023-02-14T05:38:16;102147.51;;;2.45;81.34
62946;BME280;52164;52.212;-1.010;2023-02-14T05:40:42;102149.01;;;2.47;80.90
62946;BME280;52164;52.212;-1.010;2023-02-14T05:43:07;102143.52;;;2.47;81.36
62946;BME280;52164;52.212;-1.010;2023-02-14T05:45:33;102139.13;;;2.47;81.38
62946;BME280;52164;52.212;-1.010;2023-02-14T05:47:58;102148.96;;;2.46;81.75
62946;BME280;52164;52.212;-1.010;2023-02-14T05:50:24;102152.77;;;2.48;81.83
62946;BME280;52164;52.212;-1.010;2023-02-14T05:52:49;102151.05;;;2.49;81.72
62946;BME280;52164;52.212;-1.010;2023-02-14T05:55:14;102153.91;;;2.50;81.83
62946;BME280;52164;52.212;-1.010;2023-02-14T05:57:40;102155.54;;;2.50;81.95
62946;BME280;52164;52.212;-1.010;2023-02-14T06:00:06;102158.91;;;2.51;81.99
62946;BME280;52164;52.212;-1.010;2023-02-14T06:02:31;102157.70;;;2.51;82.17
62946;BME280;52164;52.212;-1.010;2023-02-14T06:04:57;102150.52;;;2.52;82.14
62946;BME280;52164;52.212;-1.010;2023-02-14T06:07:22;102148.27;;;2.53;82.51
62946;BME280;52164;52.212;-1.010;2023-02-14T06:09:47;102152.71;;;2.53;82.65
62946;BME280;52164;52.212;-1.010;2023-02-14T06:12:13;102151.01;;;2.54;82.72
62946;BME280;52164;52.212;-1.010;2023-02-14T06:14:38;102145.80;;;2.55;82.41
62946;BME280;52164;52.212;-1.010;2023-02-14T06:17:08;102147.08;;;2.56;82.90
62946;BME280;52164;52.212;-1.010;2023-02-14T06:19:34;102149.33;;;2.58;82.56
62946;BME280;52164;52.212;-1.010;2023-02-14T06:21:59;102153.61;;;2.59;82.66
62946;BME280;52164;52.212;-1.010;2023-02-14T06:24:24;102161.14;;;2.61;82.99
62946;BME280;52164;52.212;-1.010;2023-02-14T06:26:50;102161.23;;;2.63;82.84
62946;BME280;52164;52.212;-1.010;2023-02-14T06:29:15;102164.54;;;2.65;82.73
62946;BME280;52164;52.212;-1.010;2023-02-14T06:31:41;102165.88;;;2.68;82.80
62946;BME280;52164;52.212;-1.010;2023-02-14T06:34:06;102168.46;;;2.70;82.97
62946;BME280;52164;52.212;-1.010;2023-02-14T06:36:31;102173.98;;;2.73;83.23
62946;BME280;52164;52.212;-1.010;2023-02-14T06:38:57;102172.34;;;2.78;83.40
62946;BME280;52164;52.212;-1.010;2023-02-14T06:41:22;102172.15;;;2.84;83.35
62946;BME280;52164;52.212;-1.010;2023-02-14T06:43:47;102169.61;;;2.89;83.07
62946;BME280;52164;52.212;-1.010;2023-02-14T06:46:13;102164.79;;;2.94;83.24
62946;BME280;52164;52.212;-1.010;2023-02-14T06:48:39;102170.94;;;3.00;83.32
62946;BME280;52164;52.212;-1.010;2023-02-14T06:51:04;102174.59;;;3.05;83.26
62946;BME280;52164;52.212;-1.010;2023-02-14T06:53:30;102170.08;;;3.10;83.03
62946;BME280;52164;52.212;-1.010;2023-02-14T06:55:55;102166.28;;;3.14;83.23
62946;BME280;52164;52.212;-1.010;2023-02-14T06:58:20;102164.71;;;3.18;83.06
62946;BME280;52164;52.212;-1.010;2023-02-14T07:00:46;102167.34;;;3.21;82.95
62946;BME280;52164;52.212;-1.010;2023-02-14T07:03:11;102174.06;;;3.24;83.19
62946;BME280;52164;52.212;-1.010;2023-02-14T07:05:37;102174.75;;;3.27;83.36
62946;BME280;52164;52.212;-1.010;2023-02-14T07:08:02;102177.50;;;3.32;83.22
62946;BME280;52164;52.212;-1.010;2023-02-14T07:10:27;102176.94;;;3.38;83.32
62946;BME280;52164;52.212;-1.010;2023-02-14T07:12:53;102175.41;;;3.42;83.46
62946;BME280;52164;52.212;-1.010;2023-02-14T07:15:18;102174.58;;;3.46;83.04
62946;BME280;52164;52.212;-1.010;2023-02-14T07:17:45;102176.98;;;3.48;82.78
62946;BME280;52164;52.212;-1.010;2023-02-14T07:20:11;102180.80;;;3.50;83.12
62946;BME280;52164;52.212;-1.010;2023-02-14T07:22:37;102184.54;;;3.50;83.08
62946;BME280;52164;52.212;-1.010;2023-02-14T07:25:03;102183.41;;;3.52;83.12
62946;BME280;52164;52.212;-1.010;2023-02-14T07:27:28;102191.80;;;3.54;83.06
62946;BME280;52164;52.212;-1.010;2023-02-14T07:29:54;102192.61;;;3.56;82.98
62946;BME280;52164;52.212;-1.010;2023-02-14T07:32:19;102188.52;;;3.59;83.13
62946;BME280;52164;52.212;-1.010;2023-02-14T07:34:44;102184.15;;;3.63;83.11
62946;BME280;52164;52.212;-1.010;2023-02-14T07:37:09;102182.96;;;3.67;83.05
62946;BME280;52164;52.212;-1.010;2023-02-14T07:39:35;102183.80;;;3.69;83.19
62946;BME280;52164;52.212;-1.010;2023-02-14T07:42:00;102186.23;;;3.72;83.34
62946;BME280;52164;52.212;-1.010;2023-02-14T07:44:25;102183.16;;;3.74;83.26
62946;BME280;52164;52.212;-1.010;2023-02-14T07:46:51;102183.88;;;3.77;83.33
62946;BME280;52164;52.212;-1.010;2023-02-14T07:49:19;102184.77;;;3.80;83.56
62946;BME280;52164;52.212;-1.010;2023-02-14T07:51:44;102183.91;;;3.84;83.63
62946;BME280;52164;52.212;-1.010;2023-02-14T07:54:09;102184.86;;;3.89;83.29
62946;BME280;52164;52.212;-1.010;2023-02-14T07:56:35;102186.13;;;3.93;83.52
62946;BME280;52164;52.212;-1.010;2023-02-14T07:59:00;102188.62;;;3.96;83.48
62946;BME280;52164;52.212;-1.010;2023-02-14T08:01:25;102190.19;;;3.99;83.24
62946;BME280;52164;52.212;-1.010;2023-02-14T08:03:50;102188.98;;;4.00;83.34
62946;BME280;52164;52.212;-1.010;2023-02-14T08:06:17;102191.86;;;4.01;83.37
62946;BME280;52164;52.212;-1.010;2023-02-14T08:08:43;102193.05;;;4.03;83.50
62946;BME280;52164;52.212;-1.010;2023-02-14T08:11:08;102200.25;;;4.05;83.49
62946;BME280;52164;52.212;-1.010;2023-02-14T08:13:33;102205.19;;;4.05;83.07
62946;BME280;52164;52.212;-1.010;2023-02-14T08:15:59;102205.16;;;4.05;83.12
62946;BME280;52164;52.212;-1.010;2023-02-14T08:18:34;102206.16;;;4.04;83.20
62946;BME280;52164;52.212;-1.010;2023-02-14T08:21:00;102204.80;;;4.04;83.57
62946;BME280;52164;52.212;-1.010;2023-02-14T08:23:26;102204.77;;;4.04;83.73
62946;BME280;52164;52.212;-1.010;2023-02-14T08:25:51;102208.35;;;4.05;83.51
62946;BME280;52164;52.212;-1.010;2023-02-14T08:28:17;102208.98;;;4.08;83.58
62946;BME280;52164;52.212;-1.010;2023-02-14T08:30:42;102214.20;;;4.09;83.37
62946;BME280;52164;52.212;-1.010;2023-02-14T08:33:08;102213.23;;;4.11;83.45
62946;BME280;52164;52.212;-1.010;2023-02-14T08:35:34;102212.83;;;4.13;83.78
62946;BME280;52164;52.212;-1.010;2023-02-14T08:38:00;102213.31;;;4.16;83.74
62946;BME280;52164;52.212;-1.010;2023-02-14T08:40:25;102214.15;;;4.18;83.58
62946;BME280;52164;52.212;-1.010;2023-02-14T08:42:50;102212.68;;;4.20;83.56
62946;BME280;52164;52.212;-1.010;2023-02-14T08:45:16;102214.06;;;4.23;83.44
62946;BME280;52164;52.212;-1.010;2023-02-14T08:47:41;102213.94;;;4.28;83.53
62946;BME280;52164;52.212;-1.010;2023-02-14T08:50:08;102204.64;;;4.32;83.55
62946;BME280;52164;52.212;-1.010;2023-02-14T08:52:33;102197.90;;;4.38;83.74
62946;BME280;52164;52.212;-1.010;2023-02-14T08:54:59;102203.05;;;4.46;83.63
62946;BME280;52164;52.212;-1.010;2023-02-14T08:57:24;102205.71;;;4.53;83.13
62946;BME280;52164;52.212;-1.010;2023-02-14T08:59:51;102203.95;;;4.60;83.17
62946;BME280;52164;52.212;-1.010;2023-02-14T09:02:16;102200.39;;;4.66;83.25
62946;BME280;52164;52.212;-1.010;2023-02-14T09:04:42;102197.81;;;4.75;83.16
62946;BME280;52164;52.212;-1.010;2023-02-14T09:07:07;102209.95;;;4.84;83.35
62946;BME280;52164;52.212;-1.010;2023-02-14T09:09:32;102201.96;;;4.90;83.02
62946;BME280;52164;52.212;-1.010;2023-02-14T09:12:01;102204.34;;;4.96;83.00
62946;BME280;52164;52.212;-1.010;2023-02-14T09:14:27;102206.49;;;5.00;82.91
62946;BME280;52164;52.212;-1.010;2023-02-14T09:16:52;102206.59;;;5.05;83.08
62946;BME280;52164;52.212;-1.010;2023-02-14T09:19:17;102205.13;;;5.11;82.79
62946;BME280;52164;52.212;-1.010;2023-02-14T09:21:43;102201.46;;;5.16;82.74
62946;BME280;52164;52.212;-1.010;2023-02-14T09:24:08;102200.40;;;5.23;82.52
62946;BME280;52164;52.212;-1.010;2023-02-14T09:26:33;102201.45;;;5.26;82.43
62946;BME280;52164;52.212;-1.010;2023-02-14T09:29:01;102193.73;;;5.28;82.52
62946;BME280;52164;52.212;-1.010;2023-02-14T09:31:26;102194.34;;;5.34;82.35
62946;BME280;52164;52.212;-1.010;2023-02-14T09:33:53;102191.55;;;5.38;82.33
62946;BME280;52164;52.212;-1.010;2023-02-14T09:36:39;102194.50;;;5.44;82.68
62946;BME280;52164;52.212;-1.010;2023-02-14T09:39:24;102197.43;;;5.51;82.45
62946;BME280;52164;52.212;-1.010;2023-02-14T09:44:01;102201.72;;;5.55;82.55
62946;BME280;52164;52.212;-1.010;2023-02-14T09:44:37;102202.57;;;5.61;82.10
62946;BME280;52164;52.212;-1.010;2023-02-14T09:47:25;102205.45;;;5.66;82.26
62946;BME280;52164;52.212;-1.010;2023-02-14T09:49:51;102205.85;;;5.71;81.63
62946;BME280;52164;52.212;-1.010;2023-02-14T09:52:19;102201.60;;;5.71;81.96
62946;BME280;52164;52.212;-1.010;2023-02-14T09:54:47;102188.84;;;5.74;82.07
62946;BME280;52164;52.212;-1.010;2023-02-14T10:04:56;102193.12;;;5.94;81.78
62946;BME280;52164;52.212;-1.010;2023-02-14T10:07:33;102193.55;;;5.96;81.46
62946;BME280;52164;52.212;-1.010;2023-02-14T10:14:55;102192.21;;;5.94;81.51
62946;BME280;52164;52.212;-1.010;2023-02-14T10:17:27;102199.33;;;5.97;81.34
62946;BME280;52164;52.212;-1.010;2023-02-14T10:19:56;102198.64;;;5.98;81.04
62946;BME280;52164;52.212;-1.010;2023-02-14T10:22:28;102198.39;;;6.01;81.23
62946;BME280;52164;52.212;-1.010;2023-02-14T10:24:59;102201.14;;;6.07;80.68
62946;BME280;52164;52.212;-1.010;2023-02-14T10:29:52;102202.87;;;6.13;81.07
62946;BME280;52164;52.212;-1.010;2023-02-14T10:32:18;102199.84;;;6.21;80.99
62946;BME280;52164;52.212;-1.010;2023-02-14T10:34:48;102201.42;;;6.33;80.96
62946;BME280;52164;52.212;-1.010;2023-02-14T10:40:49;102203.05;;;6.46;80.43
62946;BME280;52164;52.212;-1.010;2023-02-14T10:43:34;102196.52;;;6.50;80.38
62946;BME280;52164;52.212;-1.010;2023-02-14T10:50:14;102183.41;;;6.84;80.26
62946;BME280;52164;52.212;-1.010;2023-02-14T10:52:45;102185.07;;;6.99;80.10
62946;BME280;52164;52.212;-1.010;2023-02-14T10:55:16;102190.32;;;7.10;79.51
62946;BME280;52164;52.212;-1.010;2023-02-14T10:57:44;102188.83;;;7.16;79.29
62946;BME280;52164;52.212;-1.010;2023-02-14T11:02:39;102191.34;;;7.17;78.42
62946;BME280;52164;52.212;-1.010;2023-02-14T11:05:05;102195.17;;;7.15;78.68
62946;BME280;52164;52.212;-1.010;2023-02-14T11:07:31;102197.32;;;7.16;78.53
62946;BME280;52164;52.212;-1.010;2023-02-14T11:09:57;102194.45;;;7.16;78.61
62946;BME280;52164;52.212;-1.010;2023-02-14T11:12:38;102193.84;;;7.17;78.48
62946;BME280;52164;52.212;-1.010;2023-02-14T11:15:38;102194.62;;;7.23;78.09
62946;BME280;52164;52.212;-1.010;2023-02-14T11:17:49;102194.33;;;7.30;77.98
62946;BME280;52164;52.212;-1.010;2023-02-14T11:20:31;102190.64;;;7.40;78.12
62946;BME280;52164;52.212;-1.010;2023-02-14T11:22:56;102182.99;;;7.48;77.59
62946;BME280;52164;52.212;-1.010;2023-02-14T11:25:23;102178.05;;;7.53;77.70
62946;BME280;52164;52.212;-1.010;2023-02-14T11:27:53;102175.88;;;7.57;77.61
62946;BME280;52164;52.212;-1.010;2023-02-14T11:30:30;102161.45;;;7.61;77.74
62946;BME280;52164;52.212;-1.010;2023-02-14T11:32:57;102161.03;;;7.73;77.26
62946;BME280;52164;52.212;-1.010;2023-02-14T11:35:23;102163.60;;;7.85;77.24
62946;BME280;52164;52.212;-1.010;2023-02-14T11:37:55;102157.95;;;7.96;76.93
62946;BME280;52164;52.212;-1.010;2023-02-14T11:40:24;102154.15;;;8.08;76.73
62946;BME280;52164;52.212;-1.010;2023-02-14T11:42:50;102152.67;;;8.17;76.50
62946;BME280;52164;52.212;-1.010;2023-02-14T11:45:25;102148.52;;;8.20;76.29
62946;BME280;52164;52.212;-1.010;2023-02-14T11:48:16;102146.75;;;8.25;75.91
62946;BME280;52164;52.212;-1.010;2023-02-14T11:50:36;102139.13;;;8.31;76.13
62946;BME280;52164;52.212;-1.010;2023-02-14T11:53:03;102140.13;;;8.34;76.08
62946;BME280;52164;52.212;-1.010;2023-02-14T11:55:29;102139.44;;;8.35;75.75
62946;BME280;52164;52.212;-1.010;2023-02-14T11:57:57;102140.77;;;8.37;75.78
62946;BME280;52164;52.212;-1.010;2023-02-14T12:00:23;102142.11;;;8.40;75.86
62946;BME280;52164;52.212;-1.010;2023-02-14T12:02:50;102143.48;;;8.53;75.77
62946;BME280;52164;52.212;-1.010;2023-02-14T12:05:18;102137.16;;;8.71;75.60
62946;BME280;52164;52.212;-1.010;2023-02-14T12:07:45;102129.48;;;8.81;75.15
62946;BME280;52164;52.212;-1.010;2023-02-14T12:12:47;102121.49;;;8.93;74.69
62946;BME280;52164;52.212;-1.010;2023-02-14T12:15:29;102116.01;;;9.00;74.57
62946;BME280;52164;52.212;-1.010;2023-02-14T12:18:20;102107.41;;;9.15;74.51
62946;BME280;52164;52.212;-1.010;2023-02-14T12:20:52;102106.16;;;9.32;73.77
62946;BME280;52164;52.212;-1.010;2023-02-14T12:23:23;102101.09;;;9.35;73.48
62946;BME280;52164;52.212;-1.010;2023-02-14T12:25:49;102100.70;;;9.34;73.44
62946;BME280;52164;52.212;-1.010;2023-02-14T12:28:19;102096.66;;;9.30;73.29
62946;BME280;52164;52.212;-1.010;2023-02-14T12:30:46;102094.88;;;9.30;73.19
62946;BME280;52164;52.212;-1.010;2023-02-14T12:33:15;102098.70;;;9.33;73.24
62946;BME280;52164;52.212;-1.010;2023-02-14T12:45:11;102079.96;;;9.14;72.94
62946;BME280;52164;52.212;-1.010;2023-02-14T12:51:41;102075.56;;;9.10;73.29
62946;BME280;52164;52.212;-1.010;2023-02-14T12:52:02;102070.37;;;9.10;73.47
62946;BME280;52164;52.212;-1.010;2023-02-14T12:55:45;102072.39;;;9.11;73.63
62946;BME280;52164;52.212;-1.010;2023-02-14T12:58:28;102065.91;;;9.15;73.56
62946;BME280;52164;52.212;-1.010;2023-02-14T13:00:14;102063.21;;;9.20;73.44
62946;BME280;52164;52.212;-1.010;2023-02-14T13:05:37;102058.67;;;9.29;73.46
62946;BME280;52164;52.212;-1.010;2023-02-14T13:10:23;102048.05;;;9.38;72.86
62946;BME280;52164;52.212;-1.010;2023-02-14T13:13:00;102046.30;;;9.39;72.52
62946;BME280;52164;52.212;-1.010;2023-02-14T13:18:12;102039.95;;;9.41;72.87
62946;BME280;52164;52.212;-1.010;2023-02-14T13:20:41;102038.52;;;9.46;73.10
62946;BME280;52164;52.212;-1.010;2023-02-14T13:23:11;102032.65;;;9.53;72.85
62946;BME280;52164;52.212;-1.010;2023-02-14T13:25:39;102034.96;;;9.59;72.62
62946;BME280;52164;52.212;-1.010;2023-02-14T13:28:10;102034.83;;;9.67;72.77
62946;BME280;52164;52.212;-1.010;2023-02-14T13:30:36;102028.33;;;9.71;72.27
62946;BME280;52164;52.212;-1.010;2023-02-14T13:33:06;102026.52;;;9.77;72.00
62946;BME280;52164;52.212;-1.010;2023-02-14T13:35:32;102024.26;;;9.84;72.22
62946;BME280;52164;52.212;-1.010;2023-02-14T13:37:59;102020.42;;;9.95;72.12
62946;BME280;52164;52.212;-1.010;2023-02-14T13:40:26;102022.80;;;10.03;72.03
62946;BME280;52164;52.212;-1.010;2023-02-14T13:42:55;102027.45;;;10.11;71.57
62946;BME280;52164;52.212;-1.010;2023-02-14T13:48:12;102014.83;;;10.27;71.07
62946;BME280;52164;52.212;-1.010;2023-02-14T13:50:39;102012.54;;;10.34;71.25
62946;BME280;52164;52.212;-1.010;2023-02-14T13:53:09;102009.89;;;10.43;70.99
62946;BME280;52164;52.212;-1.010;2023-02-14T13:55:36;102008.84;;;10.50;70.78
62946;BME280;52164;52.212;-1.010;2023-02-14T13:58:16;102009.05;;;10.59;70.84
62946;BME280;52164;52.212;-1.010;2023-02-14T14:00:43;102001.37;;;10.66;70.36
62946;BME280;52164;52.212;-1.010;2023-02-14T14:03:12;101997.41;;;10.73;69.95
62946;BME280;52164;52.212;-1.010;2023-02-14T14:05:44;101997.91;;;10.80;70.19
62946;BME280;52164;52.212;-1.010;2023-02-14T14:08:44;101991.33;;;10.89;70.06
62946;BME280;52164;52.212;-1.010;2023-02-14T14:10:57;101987.78;;;10.98;70.01